createdAt,value
2018-08-22T00:33:45.997Z,7.30
2018-08-22T00:34:45.772Z,7.90
2018-08-22T00:35:45.949Z,10.30
2018-08-22T00:48:29.483Z,8.00
2018-08-22T00:49:29.459Z,6.60
2018-08-22T01:01:01.697Z,6.30
2018-08-22T01:06:32.398Z,4.00
2018-08-22T01:47:12.093Z,6.80
2018-08-22T02:09:14.902Z,7.00
2018-08-22T02:10:14.877Z,5.20
2018-08-22T02:11:14.648Z,5.50
2018-08-22T02:12:14.623Z,6.60
2018-08-22T02:13:14.606Z,7.50
2018-08-22T02:14:14.571Z,8.70
2018-08-22T02:15:14.548Z,6.00
2018-08-22T02:16:14.521Z,6.40
2018-08-22T02:17:14.499Z,4.00
2018-08-22T02:18:14.470Z,5.80
2018-08-22T02:19:14.444Z,7.80
2018-08-22T02:20:14.420Z,7.90
2018-08-22T02:21:14.394Z,8.10
2018-08-22T02:22:14.369Z,9.40
2018-08-22T02:23:14.345Z,7.60
2018-08-22T02:24:14.319Z,6.80
2018-08-22T02:25:14.389Z,6.10
2018-08-22T02:26:14.275Z,6.80
2018-08-22T02:27:14.247Z,6.90
2018-08-22T02:28:14.219Z,6.90
2018-08-22T02:29:14.194Z,9.20
2018-08-22T02:30:14.371Z,7.30
2018-08-22T02:31:14.144Z,12.20
2018-08-22T02:32:14.127Z,5.10
2018-08-22T02:33:14.246Z,5.10
2018-08-22T02:34:14.072Z,8.00
2018-08-22T02:35:14.043Z,8.70
2018-08-22T02:36:14.018Z,8.20
2018-08-22T02:37:13.995Z,5.90
2018-08-22T02:38:13.972Z,7.10
2018-08-22T02:39:13.942Z,10.00
2018-08-22T02:40:13.917Z,7.20
2018-08-22T02:41:13.899Z,6.30
2018-08-22T02:42:14.069Z,5.80
2018-08-22T02:43:13.842Z,11.50
2018-08-22T02:44:14.019Z,5.50
2018-08-22T02:45:13.790Z,9.40
2018-08-22T02:46:13.765Z,9.00
2018-08-22T02:47:13.741Z,7.60
2018-08-22T02:48:13.716Z,6.00
2018-08-22T02:49:13.693Z,5.30
2018-08-22T02:50:13.665Z,7.30
2018-08-22T02:51:13.640Z,11.10
2018-08-22T02:52:13.615Z,7.70
2018-08-22T02:53:13.590Z,8.40
2018-08-22T02:54:13.566Z,6.10
2018-08-22T02:55:13.539Z,5.80
2018-08-22T02:56:13.531Z,8.10
2018-08-22T02:57:13.489Z,7.10
2018-08-22T02:58:13.463Z,11.90
2018-08-22T02:59:13.442Z,9.30
2018-08-22T03:00:13.419Z,5.10
2018-08-22T03:01:13.388Z,8.20
2018-08-22T03:02:13.368Z,9.00
2018-08-22T03:03:13.337Z,9.10
2018-08-22T03:04:13.315Z,8.20
2018-08-22T03:05:13.289Z,6.90
2018-08-22T03:06:13.261Z,8.70
2018-08-22T03:07:13.237Z,9.90
2018-08-22T03:08:13.214Z,14.70
2018-08-22T03:09:13.187Z,12.60
2018-08-22T03:10:55.577Z,9.40
2018-08-22T03:11:55.349Z,9.80
2018-08-22T03:12:55.322Z,7.70
2018-08-22T03:13:55.300Z,8.80
2018-08-22T03:14:55.279Z,9.90
2018-08-22T03:15:55.247Z,7.90
2018-08-22T03:16:55.223Z,10.30
2018-08-22T03:17:55.198Z,8.90
2018-08-22T03:18:55.173Z,18.10
2018-08-22T03:19:55.352Z,10.80
2018-08-22T03:20:55.121Z,12.60
2018-08-22T03:21:55.101Z,7.00
2018-08-22T03:22:55.071Z,8.30
2018-08-22T03:23:55.044Z,11.20
2018-08-22T03:24:55.021Z,8.30
2018-08-22T03:25:54.994Z,7.20
2018-08-22T03:26:54.971Z,11.30
2018-08-22T03:27:54.944Z,6.70
2018-08-22T03:28:54.919Z,10.70
2018-08-22T03:29:54.896Z,7.70
2018-08-22T03:30:54.868Z,8.60
2018-08-22T03:31:54.847Z,11.50
2018-08-22T03:32:54.822Z,20.30
2018-08-22T03:33:54.793Z,18.00
2018-08-22T03:34:54.769Z,21.20
2018-08-22T03:35:54.742Z,10.90
2018-08-22T03:36:54.722Z,11.40
2018-08-22T03:37:54.695Z,9.00
2018-08-22T03:38:54.666Z,12.80
2018-08-22T03:39:54.648Z,8.00
2018-08-22T03:40:54.616Z,7.90
2018-08-22T03:41:54.591Z,6.00
2018-08-22T03:42:54.566Z,11.00
2018-08-22T03:43:54.691Z,9.10
2018-08-22T03:44:54.515Z,12.40
2018-08-22T03:45:54.493Z,9.90
2018-08-22T03:46:54.465Z,10.90
2018-08-22T03:47:54.441Z,12.00
2018-08-22T03:48:54.413Z,10.50
2018-08-22T03:49:54.389Z,8.40
2018-08-22T03:50:54.370Z,7.80
2018-08-22T03:51:54.337Z,11.00
2018-08-22T03:52:54.312Z,12.80
2018-08-22T03:53:54.287Z,6.90
2018-08-22T03:54:54.261Z,10.60
2018-08-22T03:55:54.237Z,8.50
2018-08-22T03:56:54.212Z,12.00
2018-08-22T03:57:54.188Z,10.20
2018-08-22T03:58:54.160Z,9.90
2018-08-22T03:59:54.134Z,9.50
2018-08-22T04:00:54.140Z,8.40
2018-08-22T04:01:54.084Z,11.10
2018-08-22T04:02:54.059Z,9.00
2018-08-22T04:03:54.033Z,8.50
2018-08-22T04:04:54.008Z,9.20
2018-08-22T04:05:53.982Z,11.00
2018-08-22T04:06:53.961Z,8.10
2018-08-22T04:07:53.931Z,8.70
2018-08-22T04:08:53.906Z,10.40
2018-08-22T04:09:53.881Z,9.10
2018-08-22T04:10:53.859Z,11.10
2018-08-22T04:11:53.830Z,8.00
2018-08-22T04:12:53.805Z,11.50
2018-08-22T04:13:53.786Z,12.50
2018-08-22T04:14:53.762Z,7.50
2018-08-22T04:15:53.726Z,10.50
2018-08-22T04:16:53.706Z,10.70
2018-08-22T04:17:53.678Z,6.50
2018-08-22T04:18:53.662Z,5.90
2018-08-22T04:19:53.628Z,5.40
2018-08-22T04:20:53.602Z,7.80
2018-08-22T04:21:53.577Z,9.80
2018-08-22T04:22:53.552Z,10.40
2018-08-22T04:23:53.525Z,15.40
2018-08-22T04:24:53.500Z,7.30
2018-08-22T04:25:53.475Z,9.90
2018-08-22T04:26:53.454Z,6.70
2018-08-22T04:27:53.426Z,8.00
2018-08-22T04:28:53.399Z,10.50
2018-08-22T04:29:53.376Z,9.50
2018-08-22T04:30:53.364Z,10.60
2018-08-22T04:31:53.322Z,11.40
2018-08-22T04:32:53.299Z,10.10
2018-08-22T04:33:53.273Z,8.20
2018-08-22T04:34:53.247Z,17.90
2018-08-22T04:35:53.222Z,6.10
2018-08-22T04:36:53.197Z,11.00
2018-08-22T04:37:53.173Z,13.70
2018-08-22T04:38:53.155Z,18.60
2018-08-22T04:39:53.122Z,18.80
2018-08-22T04:40:53.098Z,11.20
2018-08-22T04:41:53.072Z,15.20
2018-08-22T04:42:53.049Z,15.20
2018-08-22T04:43:53.022Z,9.50
2018-08-22T04:44:52.997Z,12.70
2018-08-22T04:45:52.977Z,12.40
2018-08-22T04:46:52.947Z,11.80
2018-08-22T04:47:52.922Z,14.00
2018-08-22T04:48:52.900Z,9.50
2018-08-22T04:49:52.872Z,10.80
2018-08-22T04:50:52.848Z,13.60
2018-08-22T04:51:52.823Z,12.00
2018-08-22T04:52:52.799Z,10.70
2018-08-22T04:53:52.775Z,9.80
2018-08-22T04:54:52.752Z,8.30
2018-08-22T04:55:52.729Z,11.20
2018-08-22T04:56:52.701Z,12.10
2018-08-22T04:57:52.688Z,17.90
2018-08-22T04:58:52.652Z,18.10
2018-08-22T04:59:52.627Z,20.00
2018-08-22T05:00:52.604Z,9.30
2018-08-22T05:01:52.579Z,17.80
2018-08-22T05:02:52.557Z,18.70
2018-08-22T05:03:52.529Z,11.30
2018-08-22T05:04:52.509Z,13.60
2018-08-22T05:05:52.521Z,13.80
2018-08-22T05:06:52.457Z,14.50
2018-08-22T05:07:52.437Z,12.00
2018-08-22T05:08:52.410Z,11.30
2018-08-22T05:09:52.383Z,14.70
2018-08-22T05:10:52.359Z,16.90
2018-08-22T05:11:52.336Z,19.90
2018-08-22T05:12:52.311Z,11.20
2018-08-22T05:13:52.285Z,17.90
2018-08-22T05:14:52.261Z,18.50
2018-08-22T05:15:52.236Z,24.70
2018-08-22T05:16:52.212Z,15.80
2018-08-22T05:17:52.190Z,13.10
2018-08-22T05:44:56.874Z,13.20
2018-08-22T06:23:36.647Z,16.90
2018-08-22T06:27:43.060Z,11.60
2018-08-22T06:28:42.836Z,10.00
2018-08-22T06:29:43.018Z,12.80
2018-08-22T06:30:43.607Z,10.40
2018-08-22T06:35:31.570Z,24.80
2018-08-22T06:36:31.374Z,26.40
2018-08-22T06:37:31.537Z,17.20
2018-08-22T06:38:31.526Z,24.90
2018-08-22T06:39:31.506Z,14.00
2018-08-22T06:40:31.468Z,43.40
2018-08-22T06:41:31.448Z,33.70
2018-08-22T06:42:34.253Z,19.00
2018-08-22T06:43:31.207Z,12.40
2018-08-22T06:44:31.188Z,15.10
2018-08-22T06:45:31.166Z,14.00
2018-08-22T06:46:31.153Z,17.00
2018-08-22T06:47:31.127Z,8.50
2018-08-22T06:48:31.107Z,15.30
2018-08-22T06:49:31.093Z,14.60
2018-08-22T06:50:31.068Z,18.90
2018-08-22T06:51:31.252Z,17.40
2018-08-22T06:52:31.030Z,16.20
2018-08-22T06:53:31.013Z,18.00
2018-08-22T06:54:30.991Z,17.00
2018-08-22T06:55:31.175Z,14.90
2018-08-22T06:56:31.155Z,9.80
2018-08-22T06:57:31.136Z,13.10
2018-08-22T06:58:30.915Z,11.80
2018-08-22T06:59:30.897Z,19.20
2018-08-22T07:00:30.877Z,22.10
2018-08-22T07:01:30.860Z,11.40
2018-08-22T07:02:30.840Z,15.40
2018-08-22T07:03:30.824Z,9.90
2018-08-22T07:04:31.006Z,12.00
2018-08-22T07:05:30.987Z,14.60
2018-08-22T07:06:30.767Z,10.30
2018-08-22T07:07:30.748Z,16.00
2018-08-22T07:08:30.731Z,11.50
2018-08-22T07:09:30.714Z,11.20
2018-08-22T07:10:30.697Z,24.00
2018-08-22T07:11:30.675Z,19.40
2018-08-22T07:12:30.661Z,14.60
2018-08-22T07:13:30.841Z,18.60
2018-08-22T07:14:30.620Z,17.10
2018-08-22T07:16:12.970Z,8.50
2018-08-22T07:17:12.947Z,9.80
2018-08-22T07:18:12.722Z,13.00
2018-08-22T07:19:12.708Z,14.50
2018-08-22T07:20:13.902Z,27.60
2018-08-22T07:21:12.670Z,34.40
2018-08-22T07:22:12.653Z,34.00
2018-08-22T07:23:12.651Z,19.60
2018-08-22T07:24:12.618Z,23.90
2018-08-22T07:25:12.801Z,9.30
2018-08-22T07:26:12.586Z,12.10
2018-08-22T07:27:12.774Z,10.30
2018-08-22T07:28:12.953Z,14.70
2018-08-22T07:29:12.735Z,10.80
2018-08-22T07:30:12.773Z,12.60
2018-08-22T07:31:12.498Z,18.90
2018-08-22T07:32:15.304Z,12.80
2018-08-22T07:33:12.668Z,14.30
2018-08-22T07:34:12.647Z,22.00
2018-08-22T07:35:12.433Z,18.80
2018-08-22T07:37:36.926Z,40.20
2018-08-22T07:38:36.707Z,34.20
2018-08-22T07:39:36.892Z,26.90
2018-08-22T07:40:36.677Z,19.80
2018-08-22T07:41:36.656Z,23.70
2018-08-22T07:42:36.672Z,19.80
2018-08-22T07:43:36.838Z,20.10
2018-08-22T07:44:36.608Z,16.40
2018-08-22T07:45:36.792Z,15.20
2018-08-22T07:46:36.778Z,17.00
2018-08-22T07:47:37.769Z,17.90
2018-08-22T07:48:36.804Z,8.00
2018-08-22T07:49:36.724Z,9.20
2018-08-22T07:50:36.718Z,8.00
2018-08-22T07:51:36.692Z,7.70
2018-08-22T08:05:15.500Z,9.30
2018-08-22T08:06:15.283Z,13.00
2018-08-22T08:07:15.466Z,21.10
2018-08-22T08:08:15.247Z,8.70
2018-08-22T08:09:15.229Z,14.30
2018-08-22T08:10:15.214Z,6.60
2018-08-22T08:11:15.397Z,6.80
2018-08-22T08:12:15.382Z,9.30
2018-08-22T08:13:15.365Z,4.00
2018-08-22T08:14:15.349Z,7.30
2018-08-22T08:15:15.129Z,8.10
2018-08-22T08:16:15.117Z,7.00
2018-08-22T08:17:15.118Z,7.00
2018-08-22T08:21:03.916Z,7.10
2018-08-22T08:22:06.725Z,7.90
2018-08-22T08:23:03.883Z,8.30
2018-08-22T08:24:03.664Z,9.30
2018-08-22T08:25:03.849Z,9.60
2018-08-22T08:26:03.858Z,9.30
2018-08-22T08:27:03.822Z,7.40
2018-08-22T08:28:03.600Z,4.80
2018-08-22T08:29:03.790Z,8.50
2018-08-22T08:30:03.574Z,5.10
2018-08-22T08:31:03.562Z,7.10
2018-08-22T08:32:03.541Z,3.60
2018-08-22T08:33:03.524Z,8.80
2018-08-22T08:34:47.083Z,6.60
2018-08-22T08:35:45.915Z,7.50
2018-08-22T08:36:45.849Z,7.10
2018-08-22T08:37:45.824Z,8.60
2018-08-22T08:39:27.971Z,10.90
2018-08-22T08:40:27.953Z,10.20
2018-08-22T08:41:27.948Z,11.10
2018-08-22T08:42:27.924Z,8.80
2018-08-22T08:43:27.981Z,6.60
2018-08-22T08:44:27.698Z,10.00
2018-08-22T08:45:27.879Z,8.10
2018-08-22T08:46:27.664Z,6.90
2018-08-22T08:47:27.648Z,7.20
2018-08-22T08:48:27.834Z,5.50
2018-08-22T08:49:27.974Z,12.70
2018-08-22T08:50:27.603Z,11.90
2018-08-22T08:51:27.589Z,8.20
2018-08-22T08:52:27.776Z,6.60
2018-08-22T08:53:27.575Z,15.90
2018-08-22T08:54:27.547Z,6.70
2018-08-22T08:55:27.736Z,9.80
2018-08-22T08:56:27.526Z,11.30
2018-08-22T08:57:27.547Z,6.10
2018-08-22T08:58:27.702Z,7.20
2018-08-22T08:59:27.475Z,9.10
2018-08-22T09:00:27.461Z,12.20
2018-08-22T09:01:27.649Z,11.30
2018-08-22T09:02:27.432Z,10.10
2018-08-22T09:03:27.621Z,10.20
2018-08-22T09:04:27.435Z,11.70
2018-08-22T09:05:27.602Z,7.30
2018-08-22T09:06:30.237Z,6.80
2018-08-22T09:07:27.566Z,4.20
2018-08-22T09:08:27.349Z,7.70
2018-08-22T09:09:27.337Z,17.00
2018-08-22T09:10:27.323Z,18.40
2018-08-22T09:11:27.309Z,9.80
2018-08-22T09:12:30.523Z,9.40
2018-08-22T09:13:27.281Z,5.90
2018-08-22T09:14:27.270Z,8.70
2018-08-22T09:15:27.499Z,5.80
2018-08-22T09:16:27.443Z,6.60
2018-08-22T09:18:12.212Z,10.00
2018-08-22T09:19:09.377Z,10.00
2018-08-22T09:20:09.365Z,8.70
2018-08-22T09:21:09.408Z,8.30
2018-08-22T09:22:09.367Z,4.70
2018-08-22T09:23:09.523Z,10.80
2018-08-22T09:24:12.184Z,10.30
2018-08-22T09:25:12.522Z,7.50
2018-08-22T09:26:09.288Z,5.80
2018-08-22T09:27:09.276Z,7.10
2018-08-22T09:28:09.315Z,7.70
2018-08-22T09:29:09.254Z,8.00
2018-08-22T09:30:09.262Z,14.90
2018-08-22T09:31:09.212Z,17.80
2018-08-22T09:32:09.406Z,10.60
2018-08-22T09:33:09.393Z,7.50
2018-08-22T09:34:09.176Z,6.00
2018-08-22T09:35:09.160Z,3.90
2018-08-22T09:36:09.350Z,7.10
2018-08-22T09:37:09.143Z,6.00
2018-08-22T09:55:01.166Z,5.30
2018-08-22T09:56:00.950Z,3.70
2018-08-22T09:57:00.936Z,6.30
2018-08-22T09:58:00.923Z,3.10
2018-08-22T09:59:00.911Z,5.90
2018-08-22T10:00:00.922Z,7.80
2018-08-22T10:01:00.933Z,9.10
2018-08-22T10:02:00.868Z,4.10
2018-08-22T10:03:00.855Z,4.50
2018-08-22T10:04:00.841Z,6.50
2018-08-22T10:05:00.828Z,7.00
2018-08-22T10:06:00.818Z,7.10
2018-08-22T10:07:01.046Z,5.00
2018-08-22T10:08:00.991Z,4.30
2018-08-22T10:09:03.802Z,6.00
2018-08-22T10:10:01.035Z,6.20
2018-08-22T10:11:00.953Z,5.00
2018-08-22T10:12:00.769Z,5.80
2018-08-22T10:13:00.724Z,4.40
2018-08-22T10:14:00.712Z,5.10
2018-08-22T10:15:00.700Z,8.60
2018-08-22T10:16:00.686Z,8.80
2018-08-22T10:17:00.673Z,8.20
2018-08-22T10:18:00.661Z,7.60
2018-08-22T10:19:00.705Z,7.50
2018-08-22T10:20:00.636Z,7.50
2018-08-22T10:21:00.623Z,4.90
2018-08-22T10:22:00.813Z,4.30
2018-08-22T10:23:03.428Z,6.00
2018-08-22T10:24:42.955Z,6.30
2018-08-22T10:25:42.733Z,4.60
2018-08-22T10:26:42.768Z,8.40
2018-08-22T10:27:42.711Z,6.10
2018-08-22T10:28:42.697Z,5.80
2018-08-22T10:29:42.686Z,4.30
2018-08-22T10:30:42.874Z,4.00
2018-08-22T10:31:42.661Z,4.90
2018-08-22T10:32:42.728Z,4.00
2018-08-22T10:33:42.637Z,5.90
2018-08-22T10:34:42.631Z,4.60
2018-08-22T10:35:42.617Z,4.20
2018-08-22T10:36:42.851Z,4.40
2018-08-22T10:37:42.788Z,5.20
2018-08-22T10:38:42.776Z,7.30
2018-08-22T10:39:42.766Z,6.90
2018-08-22T10:40:42.752Z,3.20
2018-08-22T10:41:42.763Z,6.00
2018-08-22T10:42:43.540Z,4.60
2018-08-22T10:43:42.715Z,6.90
2018-08-22T10:44:42.501Z,4.60
2018-08-22T10:45:42.489Z,5.00
2018-08-22T10:46:42.481Z,6.30
2018-08-22T10:47:42.464Z,4.60
2018-08-22T10:48:42.656Z,4.90
2018-08-22T10:49:42.440Z,5.00
2018-08-22T10:50:42.510Z,6.10
2018-08-22T10:51:42.417Z,6.20
2018-08-22T10:52:42.613Z,6.50
2018-08-22T10:53:42.393Z,4.50
2018-08-22T10:54:42.385Z,7.30
2018-08-22T10:55:42.572Z,4.00
2018-08-22T10:56:42.360Z,6.60
2018-08-22T10:57:42.548Z,4.10
2018-08-22T10:58:42.538Z,6.00
2018-08-22T10:59:42.526Z,5.90
2018-08-22T11:00:42.318Z,3.80
2018-08-22T11:01:42.300Z,4.40
2018-08-22T11:02:42.292Z,6.40
2018-08-22T11:03:42.480Z,3.50
2018-08-22T11:04:42.267Z,8.20
2018-08-22T11:17:39.210Z,12.00
2018-08-22T11:18:38.995Z,12.40
2018-08-22T11:19:38.981Z,4.90
2018-08-22T11:20:38.971Z,4.90
2018-08-22T11:21:38.960Z,7.20
2018-08-22T11:22:38.947Z,13.20
2018-08-22T11:23:38.936Z,6.70
2018-08-22T11:24:38.925Z,4.30
2018-08-22T11:25:38.917Z,3.90
2018-08-22T11:26:38.902Z,7.30
2018-08-22T11:27:38.891Z,4.70
2018-08-22T11:28:38.880Z,6.60
2018-08-22T11:31:45.567Z,5.90
2018-08-22T11:32:45.551Z,5.00
2018-08-22T11:33:45.333Z,7.50
2018-08-22T11:34:45.324Z,4.70
2018-08-22T11:35:45.312Z,4.10
2018-08-22T11:36:45.301Z,8.90
2018-08-22T11:37:45.289Z,4.40
2018-08-22T11:38:45.282Z,4.90
2018-08-22T11:39:45.270Z,8.00
2018-08-22T11:40:45.262Z,4.90
2018-08-22T11:41:45.297Z,3.80
2018-08-22T11:42:45.234Z,4.80
2018-08-22T11:45:09.751Z,5.10
2018-08-22T11:46:09.543Z,4.90
2018-08-22T11:47:09.529Z,3.40
2018-08-22T11:48:55.111Z,6.40
2018-08-22T11:49:51.878Z,8.80
2018-08-22T11:50:51.857Z,7.30
2018-08-22T11:51:55.481Z,5.20
2018-08-22T11:52:51.634Z,6.10
2018-08-22T11:53:51.623Z,6.70
2018-08-22T11:54:51.815Z,3.20
2018-08-22T11:55:51.604Z,5.70
2018-08-22T11:56:51.592Z,4.90
2018-08-22T11:57:51.580Z,4.20
2018-08-22T11:58:51.570Z,4.70
2018-08-22T12:00:33.925Z,6.10
2018-08-22T12:01:33.711Z,5.50
2018-08-22T12:02:33.902Z,6.00
2018-08-22T12:03:33.894Z,4.40
2018-08-22T12:04:33.682Z,5.00
2018-08-22T12:05:33.671Z,4.10
2018-08-22T12:06:33.658Z,3.70
2018-08-22T12:07:33.647Z,7.20
2018-08-22T12:08:33.840Z,4.10
2018-08-22T12:09:33.627Z,6.10
2018-08-22T12:10:33.849Z,5.20
2018-08-22T12:11:33.606Z,3.00
2018-08-22T12:12:33.598Z,2.90
2018-08-22T12:13:33.584Z,4.10
2018-08-22T12:14:33.777Z,7.60
2018-08-22T12:15:33.567Z,6.00
2018-08-22T12:16:33.555Z,6.90
2018-08-22T12:17:33.543Z,4.10
2018-08-22T12:18:33.533Z,3.70
2018-08-22T12:19:33.726Z,3.90
2018-08-22T12:20:33.520Z,4.90
2018-08-22T12:21:33.503Z,10.30
2018-08-22T12:22:33.492Z,8.00
2018-08-22T12:23:33.685Z,5.80
2018-08-22T12:25:15.836Z,4.80
2018-08-22T12:26:15.838Z,6.10
2018-08-22T12:27:15.817Z,3.40
2018-08-22T12:28:15.806Z,6.10
2018-08-22T12:32:04.712Z,6.80
2018-08-22T12:33:04.707Z,7.00
2018-08-22T12:34:46.855Z,3.10
2018-08-22T12:35:46.644Z,3.80
2018-08-22T12:36:47.239Z,8.60
2018-08-22T12:37:46.831Z,10.20
2018-08-22T12:38:46.612Z,14.50
2018-08-22T12:39:46.601Z,13.80
2018-08-22T12:47:06.257Z,13.00
2018-08-22T12:48:06.245Z,10.90
2018-08-22T12:49:06.035Z,14.00
2018-08-22T12:50:06.022Z,17.40
2018-08-22T12:51:06.213Z,8.80
2018-08-22T12:52:05.999Z,18.30
2018-08-22T12:53:06.194Z,15.00
2018-08-22T12:54:05.978Z,15.00
2018-08-22T12:55:06.170Z,11.60
2018-08-22T12:56:05.956Z,16.30
2018-08-22T12:57:48.310Z,4.40
2018-08-22T12:59:30.876Z,4.70
2018-08-22T13:00:30.451Z,5.20
2018-08-22T13:01:30.446Z,2.70
2018-08-22T13:02:30.230Z,6.10
2018-08-22T13:03:30.217Z,3.70
2018-08-22T13:04:30.454Z,4.70
2018-08-22T13:05:30.202Z,5.40
2018-08-22T13:06:30.387Z,4.70
2018-08-22T13:07:30.376Z,4.60
2018-08-22T13:08:30.168Z,5.80
2018-08-22T13:10:54.678Z,4.10
2018-08-22T13:11:54.668Z,6.60
2018-08-22T13:12:54.454Z,4.50
2018-08-22T13:15:18.984Z,11.70
2018-08-22T13:16:18.762Z,10.80
2018-08-22T13:17:18.745Z,7.70
2018-08-22T13:18:18.748Z,4.60
2018-08-22T13:19:18.724Z,4.20
2018-08-22T13:21:01.079Z,12.30
2018-08-22T13:22:00.864Z,11.80
2018-08-22T13:23:00.852Z,11.20
2018-08-22T13:24:00.863Z,7.50
2018-08-22T13:25:00.829Z,5.90
2018-08-22T13:26:00.821Z,5.70
2018-08-22T13:27:43.178Z,8.00
2018-08-22T13:28:42.967Z,6.80
2018-08-22T13:29:42.946Z,7.40
2018-08-22T13:30:42.940Z,8.60
2018-08-22T13:31:42.924Z,11.10
2018-08-22T13:32:42.915Z,8.50
2018-08-22T13:33:42.903Z,8.60
2018-08-22T13:34:42.892Z,5.90
2018-08-22T13:35:42.884Z,3.80
2018-08-22T13:36:43.074Z,4.60
2018-08-22T13:37:42.892Z,3.60
2018-08-22T13:38:42.847Z,3.00
2018-08-22T13:39:42.843Z,5.50
2018-08-22T13:40:42.826Z,4.70
2018-08-22T13:41:42.813Z,4.30
2018-08-22T13:42:42.800Z,5.10
2018-08-22T13:43:42.790Z,4.10
2018-08-22T13:44:42.777Z,5.60
2018-08-22T13:45:42.767Z,5.90
2018-08-22T13:46:42.957Z,2.80
2018-08-22T13:47:42.752Z,3.10
2018-08-22T13:48:42.731Z,3.50
2018-08-22T13:51:07.247Z,4.60
2018-08-22T13:52:07.032Z,8.10
2018-08-22T13:53:07.019Z,7.90
2018-08-22T13:54:07.007Z,9.10
2018-08-22T13:55:07.007Z,7.90
2018-08-22T13:56:07.032Z,6.00
2018-08-22T13:57:49.333Z,5.90
2018-08-22T13:58:49.122Z,4.70
2018-08-22T13:59:49.311Z,4.60
2018-08-22T14:00:49.102Z,5.90
2018-08-22T14:01:49.191Z,3.20
2018-08-22T14:02:49.075Z,4.30
2018-08-22T14:03:49.056Z,3.00
2018-08-22T14:04:49.044Z,4.70
2018-08-22T14:05:49.033Z,4.90
2018-08-22T14:06:49.019Z,8.20
2018-08-22T14:07:49.006Z,4.20
2018-08-22T14:08:48.993Z,8.70
2018-08-22T14:09:48.985Z,5.20
2018-08-22T14:10:48.970Z,3.60
2018-08-22T14:11:48.956Z,4.60
2018-08-22T14:12:48.946Z,3.70
2018-08-22T14:13:48.941Z,3.20
2018-08-22T14:14:48.917Z,4.20
2018-08-22T14:15:48.905Z,3.30
2018-08-22T14:16:48.894Z,4.00
2018-08-22T14:17:48.892Z,5.10
2018-08-22T14:18:48.867Z,8.10
2018-08-22T14:19:48.855Z,7.60
2018-08-22T14:20:48.842Z,4.10
2018-08-22T14:21:48.834Z,4.80
2018-08-22T14:22:48.824Z,3.80
2018-08-22T14:23:48.804Z,8.80
2018-08-22T14:24:48.792Z,9.00
2018-08-22T14:25:48.781Z,4.60
2018-08-22T14:26:48.768Z,7.10
2018-08-22T14:27:48.760Z,5.90
2018-08-22T14:28:48.744Z,7.80
2018-08-22T14:29:48.731Z,3.20
2018-08-22T14:30:48.717Z,4.10
2018-08-22T14:31:48.705Z,3.60
2018-08-22T14:32:48.693Z,4.90
2018-08-22T14:33:48.776Z,6.60
2018-08-22T14:34:48.668Z,6.60
2018-08-22T14:35:48.657Z,4.80
2018-08-22T14:36:48.644Z,5.80
2018-08-22T14:37:48.633Z,3.90
2018-08-22T14:38:48.620Z,4.40
2018-08-22T14:39:48.614Z,4.30
2018-08-22T14:40:48.596Z,8.30
2018-08-22T14:41:48.583Z,4.00
2018-08-22T14:42:48.581Z,5.40
2018-08-22T14:43:48.560Z,6.60
2018-08-22T14:44:48.598Z,7.80
2018-08-22T14:45:48.545Z,8.60
2018-08-22T14:46:48.524Z,7.70
2018-08-22T14:47:48.521Z,5.80
2018-08-22T14:48:48.502Z,5.10
2018-08-22T14:49:48.489Z,9.70
2018-08-22T14:50:48.475Z,8.10
2018-08-22T14:51:48.464Z,7.40
2018-08-22T14:52:48.453Z,5.30
2018-08-22T14:53:48.440Z,6.20
2018-08-22T14:54:48.428Z,12.80
2018-08-22T14:55:48.486Z,5.50
2018-08-22T14:56:48.404Z,7.10
2018-08-22T14:57:48.393Z,7.30
2018-08-22T14:58:48.377Z,6.50
2018-08-22T14:59:48.370Z,3.70
2018-08-22T15:00:48.355Z,7.40
2018-08-22T15:01:48.342Z,6.10
2018-08-22T15:02:48.467Z,9.50
2018-08-22T15:03:48.316Z,3.70
2018-08-22T15:04:48.304Z,5.00
2018-08-22T15:05:48.295Z,3.90
2018-08-22T15:06:48.278Z,6.40
2018-08-22T15:07:48.270Z,9.30
2018-08-22T15:08:48.255Z,5.00
2018-08-22T15:09:48.241Z,5.90
2018-08-22T15:10:48.227Z,7.60
2018-08-22T15:11:48.215Z,11.90
2018-08-22T15:12:48.334Z,7.50
2018-08-22T15:13:48.190Z,8.30
2018-08-22T15:14:48.182Z,9.40
2018-08-22T15:15:48.164Z,5.10
2018-08-22T15:16:48.354Z,5.20
2018-08-22T15:19:13.940Z,8.20
2018-08-22T15:20:12.452Z,6.40
2018-08-22T15:21:12.636Z,7.50
2018-08-22T15:22:12.421Z,7.20
2018-08-22T15:23:12.614Z,3.70
2018-08-22T15:24:12.394Z,4.00
2018-08-22T15:25:12.381Z,8.30
2018-08-22T15:26:12.370Z,6.80
2018-08-22T15:27:12.557Z,4.80
2018-08-22T15:28:54.706Z,7.60
2018-08-22T15:29:54.536Z,7.40
2018-08-22T15:30:54.472Z,4.80
2018-08-22T15:31:54.459Z,7.30
2018-08-22T15:32:54.445Z,5.90
2018-08-22T15:33:54.448Z,3.00
2018-08-22T15:34:54.418Z,6.20
2018-08-22T15:35:54.405Z,8.50
2018-08-22T15:36:54.392Z,3.60
2018-08-22T15:37:54.377Z,7.40
2018-08-22T15:38:54.363Z,6.30
2018-08-22T15:39:54.354Z,3.50
2018-08-22T15:40:54.402Z,9.40
2018-08-22T15:41:54.428Z,6.10
2018-08-22T15:42:54.310Z,5.50
2018-08-22T15:43:54.296Z,6.70
2018-08-22T15:44:54.284Z,4.70
2018-08-22T15:45:54.274Z,4.50
2018-08-22T15:46:54.258Z,3.20
2018-08-22T15:47:54.242Z,5.30
2018-08-22T15:48:54.230Z,4.00
2018-08-22T15:49:54.214Z,4.20
2018-08-22T15:50:54.207Z,4.90
2018-08-22T15:51:54.188Z,4.10
2018-08-22T15:52:54.213Z,3.70
2018-08-22T15:53:54.171Z,4.40
2018-08-22T15:54:54.149Z,5.60
2018-08-22T15:55:54.137Z,5.50
2018-08-22T15:56:54.124Z,4.50
2018-08-22T15:57:54.108Z,6.30
2018-08-22T15:58:54.134Z,5.30
2018-08-22T15:59:54.081Z,6.00
2018-08-22T16:00:54.068Z,3.20
2018-08-22T16:01:54.052Z,6.60
2018-08-22T16:02:54.241Z,4.90
2018-08-22T16:03:54.025Z,5.20
2018-08-22T16:04:54.012Z,4.50
2018-08-22T16:05:53.996Z,4.30
2018-08-22T16:06:53.984Z,4.70
2018-08-22T16:07:53.970Z,4.60
2018-08-22T16:08:54.091Z,4.10
2018-08-22T16:09:53.943Z,4.20
2018-08-22T16:10:53.929Z,5.80
2018-08-22T16:11:54.125Z,5.50
2018-08-22T16:15:45.365Z,4.90
2018-08-22T16:20:13.525Z,7.10
2018-08-22T16:21:56.681Z,3.50
2018-08-22T16:22:55.654Z,5.20
2018-08-22T16:23:55.640Z,5.80
2018-08-22T16:24:55.625Z,6.30
2018-08-22T16:26:37.769Z,10.70
2018-08-22T16:28:19.990Z,5.70
2018-08-22T16:29:19.897Z,8.70
2018-08-22T16:30:19.680Z,7.50
2018-08-22T16:31:23.702Z,11.40
2018-08-22T16:32:19.651Z,6.90
2018-08-22T16:33:22.456Z,10.10
2018-08-22T16:34:19.821Z,8.10
2018-08-22T16:35:19.807Z,7.70
2018-08-22T16:36:19.588Z,7.40
2018-08-22T16:37:19.774Z,5.30
2018-08-22T16:38:19.556Z,4.00
2018-08-22T16:39:19.547Z,6.70
2018-08-22T16:40:19.571Z,6.50
2018-08-22T16:41:19.510Z,5.60
2018-08-22T16:42:19.550Z,6.60
2018-08-22T16:43:19.682Z,7.70
2018-08-22T16:44:19.465Z,7.90
2018-08-22T16:45:19.651Z,11.40
2018-08-22T16:46:19.435Z,6.80
2018-08-22T16:47:19.419Z,6.50
2018-08-22T16:48:19.608Z,7.90
2018-08-22T16:49:19.642Z,4.60
2018-08-22T16:51:01.733Z,5.00
2018-08-22T16:52:01.720Z,7.80
2018-08-22T16:53:01.702Z,7.80
2018-08-22T16:54:01.485Z,6.70
2018-08-22T16:55:01.673Z,5.40
2018-08-22T16:56:01.456Z,6.80
2018-08-22T16:57:43.800Z,5.30
2018-08-22T17:00:08.100Z,9.60
2018-08-22T17:01:08.084Z,7.40
2018-08-22T17:02:08.069Z,5.40
2018-08-22T17:03:08.053Z,4.80
2018-08-22T17:04:08.036Z,3.80
2018-08-22T17:05:08.019Z,4.30
2018-08-22T17:06:07.801Z,3.20
2018-08-22T17:07:52.860Z,5.80
2018-08-22T17:08:53.015Z,5.10
2018-08-22T17:09:52.733Z,8.40
2018-08-22T17:10:50.095Z,6.60
2018-08-22T17:11:50.078Z,4.90
2018-08-22T17:13:34.838Z,6.00
2018-08-22T17:15:14.373Z,5.90
2018-08-22T17:16:14.341Z,5.20
2018-08-22T17:19:20.789Z,5.70
2018-08-22T17:21:02.927Z,5.10
2018-08-22T17:23:27.224Z,4.20
2018-08-22T17:24:27.202Z,8.60
2018-08-22T17:25:26.982Z,6.40
2018-08-22T17:27:51.478Z,5.70
2018-08-22T17:30:15.771Z,4.90
2018-08-22T17:31:57.908Z,7.40
2018-08-22T17:32:57.893Z,5.40
2018-08-22T17:33:57.667Z,6.30
2018-08-22T17:34:57.653Z,7.70
2018-08-22T17:35:57.632Z,8.60
2018-08-22T17:36:57.613Z,9.00
2018-08-22T17:37:57.796Z,5.40
2018-08-22T17:38:57.623Z,10.00
2018-08-22T17:39:57.557Z,4.20
2018-08-22T17:40:57.743Z,5.70
2018-08-22T17:41:57.520Z,4.90
2018-08-22T17:42:57.704Z,4.70
2018-08-22T17:43:57.481Z,8.60
2018-08-22T17:44:57.463Z,5.40
2018-08-22T17:45:57.447Z,7.80
2018-08-22T17:46:57.426Z,5.90
2018-08-22T17:47:57.412Z,4.80
2018-08-22T17:48:57.390Z,6.20
2018-08-22T17:49:57.371Z,7.30
2018-08-22T17:50:57.353Z,7.90
2018-08-22T17:51:57.535Z,7.30
2018-08-22T17:52:57.516Z,11.80
2018-08-22T17:53:57.297Z,11.20
2018-08-22T17:57:03.943Z,8.40
2018-08-22T17:58:03.722Z,10.00
2018-08-22T17:59:05.119Z,12.30
2018-08-22T18:00:03.886Z,6.60
2018-08-22T18:01:03.666Z,6.10